Time;durP1;ratioP1;P1;durP2;ratioP2;P2;SDS_P1;SDS_P2;PMS_P1;PMS_P2;Temp;Humidity;BMP_temperature;BMP_pressure;BME280_temperature;BME280_humidity;BME280_pressure;Samples;Min_cycle;Max_cycle;Signal;HPM_P1;HPM_P2
2023/12/11 00:02:17;;;;;;;10.75;1.70;;;14.00;55.40;;;;;;4985479;28;20522;-35
2023/12/11 00:04:44;;;;;;;9.98;1.48;;;14.00;55.40;;;;;;4989503;28;20057;-35
2023/12/11 00:07:12;;;;;;;9.07;1.60;;;14.00;55.50;;;;;;4988880;28;20050;-34
2023/12/11 00:09:40;;;;;;;7.90;2.17;;;14.00;55.40;;;;;;4990922;28;20057;-34
2023/12/11 00:12:07;;;;;;;11.60;1.85;;;14.00;55.30;;;;;;4988464;28;20054;-36
2023/12/11 00:14:35;;;;;;;10.93;2.17;;;14.00;55.20;;;;;;4985363;28;20077;-34
2023/12/11 00:17:03;;;;;;;8.75;2.05;;;14.00;55.20;;;;;;4987693;28;20402;-35
2023/12/11 00:19:31;;;;;;;9.70;1.70;;;13.90;55.10;;;;;;4984701;28;20061;-35
2023/12/11 00:21:58;;;;;;;13.93;1.88;;;13.90;55.00;;;;;;4988994;28;20049;-34
2023/12/11 00:24:27;;;;;;;12.52;1.90;;;13.90;55.10;;;;;;4986811;28;20680;-34
2023/12/11 00:26:54;;;;;;;12.45;2.13;;;13.90;55.10;;;;;;4990465;28;20050;-33
2023/12/11 00:29:21;;;;;;;12.05;2.42;;;13.80;55.00;;;;;;4986249;28;20404;-33
2023/12/11 00:48:42;;;;;;;17.60;3.08;;;13.80;55.30;;;;;;4993277;28;20041;-33
2023/12/11 00:51:15;;;;;;;16.65;2.85;;;13.70;55.10;;;;;;4989110;28;20050;-33
2023/12/11 00:53:42;;;;;;;21.45;3.63;;;13.70;55.30;;;;;;4986458;28;20050;-33
2023/12/11 00:56:10;;;;;;;20.23;3.85;;;13.70;55.30;;;;;;4991277;28;20049;-36
2023/12/11 00:58:37;;;;;;;18.33;2.80;;;13.70;55.30;;;;;;4986436;28;20057;-39
2023/12/11 01:01:04;;;;;;;17.67;2.70;;;13.70;55.30;;;;;;4985936;28;20050;-38
2023/12/11 01:03:32;;;;;;;18.98;3.20;;;13.80;55.40;;;;;;4987503;28;20061;-38
2023/12/11 01:06:00;;;;;;;12.65;2.72;;;13.80;55.40;;;;;;4986920;28;20050;-40
2023/12/11 01:08:27;;;;;;;15.88;2.58;;;13.90;55.40;;;;;;4986333;28;20521;-40
2023/12/11 01:10:55;;;;;;;16.05;3.30;;;13.90;55.30;;;;;;4985838;28;20069;-38
2023/12/11 01:13:22;;;;;;;16.67;3.17;;;13.90;55.20;;;;;;4988677;28;20073;-38
2023/12/11 01:15:49;;;;;;;16.92;2.53;;;13.90;55.10;;;;;;4990159;28;20049;-41
2023/12/11 01:18:16;;;;;;;16.45;2.88;;;13.90;55.10;;;;;;4986951;28;20058;-39
2023/12/11 01:20:43;;;;;;;21.52;3.70;;;14.00;55.00;;;;;;4988128;28;20073;-39
2023/12/11 01:23:12;;;;;;;14.88;3.30;;;14.00;55.00;;;;;;4988678;28;20454;-37
2023/12/11 01:25:39;;;;;;;26.23;3.85;;;14.00;54.90;;;;;;4983552;28;20495;-38
2023/12/11 01:28:06;;;;;;;16.23;2.70;;;13.90;54.80;;;;;;4986793;28;20057;-39
2023/12/11 01:30:33;;;;;;;19.70;3.17;;;13.90;54.80;;;;;;4986440;28;20487;-40
2023/12/11 01:33:03;;;;;;;14.48;2.58;;;13.90;54.70;;;;;;4985427;28;20046;-41
2023/12/11 01:35:30;;;;;;;18.85;3.25;;;13.90;54.70;;;;;;4986169;28;20047;-38
2023/12/11 01:37:57;;;;;;;18.40;3.17;;;13.90;54.60;;;;;;4985627;28;20057;-37
2023/12/11 01:40:26;;;;;;;26.80;4.28;;;13.90;54.60;;;;;;4985946;28;20483;-42
2023/12/11 01:42:53;;;;;;;30.13;4.07;;;13.90;54.90;;;;;;4989833;28;20050;-42
2023/12/11 01:45:21;;;;;;;16.40;3.58;;;13.90;54.50;;;;;;4984513;28;20062;-40
2023/12/11 01:47:48;;;;;;;24.92;4.10;;;13.90;54.50;;;;;;4989034;28;20054;-40
2023/12/11 01:50:15;;;;;;;18.10;3.38;;;13.90;54.50;;;;;;4984667;28;20096;-42
2023/12/11 01:52:42;;;;;;;20.98;2.92;;;13.90;54.50;;;;;;4985326;28;20511;-40
2023/12/11 01:55:10;;;;;;;22.15;3.65;;;13.90;54.50;;;;;;4986027;28;20050;-38
2023/12/11 01:57:39;;;;;;;19.58;3.05;;;13.90;54.50;;;;;;4986736;28;20061;-38
2023/12/11 02:00:07;;;;;;;20.20;3.72;;;13.80;54.30;;;;;;4987074;28;20062;-42
2023/12/11 02:02:35;;;;;;;25.13;3.20;;;13.90;54.30;;;;;;4983201;28;20054;-42
2023/12/11 02:05:03;;;;;;;18.25;2.65;;;13.90;54.40;;;;;;4983291;28;20407;-38
2023/12/11 02:07:30;;;;;;;21.58;3.15;;;13.80;54.20;;;;;;4988553;28;20054;-36
2023/12/11 02:09:57;;;;;;;13.50;2.78;;;13.80;54.20;;;;;;4987486;28;20479;-39
2023/12/11 02:12:24;;;;;;;20.77;3.00;;;13.80;54.30;;;;;;4989514;28;20051;-36
2023/12/11 02:14:53;;;;;;;25.02;3.50;;;13.90;54.40;;;;;;4983786;28;20495;-40
2023/12/11 02:17:20;;;;;;;25.38;3.33;;;13.90;54.30;;;;;;4986089;28;20067;-38
2023/12/11 02:19:47;;;;;;;21.83;3.17;;;13.80;54.10;;;;;;4982939;28;20061;-39
2023/12/11 02:22:15;;;;;;;18.40;3.42;;;13.90;54.30;;;;;;4988174;28;20046;-42
2023/12/11 02:24:48;;;;;;;19.40;3.10;;;14.00;54.40;;;;;;4984759;28;20054;-40
2023/12/11 02:27:16;;;;;;;19.90;2.97;;;13.90;54.10;;;;;;4986399;28;20054;-40
2023/12/11 02:29:43;;;;;;;20.70;3.42;;;14.00;54.10;;;;;;4988113;28;20060;-41
2023/12/11 02:32:11;;;;;;;23.20;2.95;;;14.00;54.10;;;;;;4989734;28;20406;-41
2023/12/11 02:34:38;;;;;;;16.58;2.63;;;14.00;54.00;;;;;;4989439;28;20050;-40
2023/12/11 02:37:05;;;;;;;17.75;2.97;;;14.00;54.00;;;;;;4989970;28;20054;-39
2023/12/11 02:39:32;;;;;;;14.85;3.53;;;14.10;54.10;;;;;;4988871;28;20058;-38
2023/12/11 02:41:59;;;;;;;13.07;2.08;;;14.10;54.00;;;;;;4989502;28;20051;-40
2023/12/11 02:44:28;;;;;;;18.70;2.70;;;14.10;53.90;;;;;;4988529;28;20058;-39
2023/12/11 02:46:55;;;;;;;13.93;2.55;;;14.10;54.00;;;;;;4987904;28;20059;-42
2023/12/11 02:49:23;;;;;;;15.18;2.63;;;14.20;53.90;;;;;;4992468;28;20542;-41
2023/12/11 02:51:50;;;;;;;16.08;2.60;;;14.20;53.90;;;;;;4985825;28;20069;-41
2023/12/11 02:54:17;;;;;;;18.35;2.78;;;14.20;53.90;;;;;;4986781;28;20415;-39
2023/12/11 02:56:44;;;;;;;11.32;2.13;;;14.20;53.90;;;;;;4986109;28;20396;-40
2023/12/11 02:59:11;;;;;;;23.83;3.00;;;14.20;53.90;;;;;;4988844;28;20065;-42
2023/12/11 03:01:40;;;;;;;19.25;3.03;;;14.30;53.90;;;;;;4989747;28;20526;-39
2023/12/11 03:04:07;;;;;;;16.42;2.88;;;14.30;53.80;;;;;;4988269;28;20046;-39
2023/12/11 03:06:35;;;;;;;18.90;3.00;;;14.30;53.80;;;;;;4987422;28;20062;-39
2023/12/11 03:09:03;;;;;;;18.52;2.40;;;14.20;53.90;;;;;;4991446;28;20052;-39
2023/12/11 03:11:30;;;;;;;13.43;2.97;;;14.30;53.90;;;;;;4988745;28;20073;-43
2023/12/11 03:13:58;;;;;;;14.40;2.55;;;14.20;53.90;;;;;;4989000;28;20050;-40
2023/12/11 03:16:25;;;;;;;17.88;2.33;;;14.20;53.90;;;;;;4992660;28;20050;-48
2023/12/11 03:18:54;;;;;;;13.85;2.22;;;14.20;53.90;;;;;;4991705;28;20053;-48
2023/12/11 03:21:21;;;;;;;10.55;2.55;;;14.20;53.80;;;;;;4988970;28;20419;-48
2023/12/11 03:23:48;;;;;;;18.52;2.80;;;14.20;53.80;;;;;;4988707;28;20062;-48
2023/12/11 03:26:16;;;;;;;18.42;2.90;;;14.20;53.80;;;;;;4987908;28;20046;-49
2023/12/11 03:28:43;;;;;;;16.02;3.13;;;14.20;53.80;;;;;;4989944;28;20058;-48
2023/12/11 03:31:10;;;;;;;20.60;2.85;;;14.20;53.80;;;;;;4988055;28;20058;-47
2023/12/11 03:33:37;;;;;;;22.63;3.25;;;14.20;53.80;;;;;;4989603;28;20503;-48
2023/12/11 03:36:07;;;;;;;15.02;2.63;;;14.20;53.80;;;;;;4986258;28;20062;-47
2023/12/11 03:38:34;;;;;;;21.13;2.63;;;14.10;54.20;;;;;;4988420;28;20057;-48
2023/12/11 03:41:01;;;;;;;15.13;2.47;;;14.10;53.80;;;;;;4988797;28;20054;-48
2023/12/11 03:43:28;;;;;;;16.30;2.88;;;14.20;53.80;;;;;;4989323;28;20061;-47
2023/12/11 03:45:56;;;;;;;17.88;3.55;;;14.10;53.70;;;;;;4987749;28;20054;-48
2023/12/11 03:48:24;;;;;;;17.15;2.78;;;14.10;53.70;;;;;;4986952;28;20068;-49
2023/12/11 03:50:51;;;;;;;21.17;3.35;;;14.10;53.60;;;;;;4986164;28;20065;-48
2023/12/11 03:53:19;;;;;;;26.83;3.78;;;14.10;53.60;;;;;;4985213;28;20057;-48
2023/12/11 03:55:47;;;;;;;26.35;3.58;;;14.00;53.60;;;;;;4989973;28;20093;-48
2023/12/11 03:58:14;;;;;;;12.25;2.97;;;14.00;53.60;;;;;;4986237;28;20411;-48
2023/12/11 04:00:41;;;;;;;17.85;2.88;;;14.00;53.70;;;;;;4989836;28;20077;-48
2023/12/11 04:03:09;;;;;;;17.77;3.17;;;14.00;53.80;;;;;;4988408;28;20066;-48
2023/12/11 04:05:37;;;;;;;14.77;2.85;;;14.00;53.80;;;;;;4986979;28;20067;-48
2023/12/11 04:08:04;;;;;;;13.88;2.47;;;13.90;53.90;;;;;;4986704;28;20076;-48
2023/12/11 04:10:33;;;;;;;14.40;2.50;;;13.90;53.90;;;;;;4989947;28;20513;-48
2023/12/11 04:13:02;;;;;;;25.30;2.95;;;13.90;53.90;;;;;;4990274;28;20058;-47
2023/12/11 04:15:29;;;;;;;16.40;2.90;;;13.90;53.90;;;;;;4988467;28;20522;-48
2023/12/11 04:17:57;;;;;;;12.02;2.22;;;13.90;54.00;;;;;;4984497;28;20073;-48
2023/12/11 04:20:24;;;;;;;16.65;3.28;;;13.90;54.10;;;;;;4988170;28;20081;-48
2023/12/11 04:22:51;;;;;;;16.23;2.95;;;13.90;54.10;;;;;;4989791;28;20063;-48
2023/12/11 04:25:18;;;;;;;22.45;2.85;;;13.90;54.10;;;;;;4988491;28;20058;-48
2023/12/11 04:27:47;;;;;;;21.23;2.92;;;13.90;54.00;;;;;;4987591;28;20061;-47
2023/12/11 04:30:15;;;;;;;16.77;3.20;;;13.90;53.90;;;;;;4986628;28;20058;-47
2023/12/11 04:32:42;;;;;;;12.82;2.58;;;13.90;54.00;;;;;;4988567;28;20058;-48
2023/12/11 04:35:09;;;;;;;16.85;2.88;;;13.90;54.00;;;;;;4985174;28;20057;-48
2023/12/11 04:37:37;;;;;;;18.00;3.22;;;13.90;54.00;;;;;;4987096;28;20066;-48
2023/12/11 04:40:05;;;;;;;17.70;2.95;;;13.90;53.90;;;;;;4989263;28;20066;-48
2023/12/11 04:42:32;;;;;;;15.57;3.22;;;13.90;53.90;;;;;;4990195;28;20054;-47
2023/12/11 04:45:01;;;;;;;17.20;2.90;;;13.90;53.90;;;;;;4990269;28;20057;-48
2023/12/11 04:47:28;;;;;;;21.50;3.60;;;13.90;53.90;;;;;;4984061;28;20050;-48
2023/12/11 04:49:55;;;;;;;25.05;3.05;;;13.80;53.90;;;;;;4990472;28;20414;-48
2023/12/11 04:52:23;;;;;;;24.38;2.97;;;13.90;54.00;;;;;;4990410;28;20434;-46
2023/12/11 04:54:50;;;;;;;10.93;2.60;;;13.80;53.90;;;;;;4990793;28;20487;-48
2023/12/11 04:57:18;;;;;;;16.83;2.40;;;13.80;54.00;;;;;;4988111;28;20057;-48
2023/12/11 04:59:45;;;;;;;21.83;2.92;;;13.80;54.00;;;;;;4986881;28;20077;-46
2023/12/11 05:02:13;;;;;;;18.67;2.70;;;13.80;54.00;;;;;;4989748;28;20053;-48
2023/12/11 05:04:41;;;;;;;17.65;3.00;;;13.80;54.10;;;;;;4985739;28;20053;-48
2023/12/11 05:07:08;;;;;;;16.63;2.90;;;13.80;54.10;;;;;;4988345;28;20389;-46
2023/12/11 05:09:35;;;;;;;19.10;2.70;;;13.80;54.10;;;;;;4986004;28;20066;-48
2023/12/11 05:12:03;;;;;;;11.70;2.40;;;13.80;54.10;;;;;;4989518;28;20050;-48
2023/12/11 05:14:30;;;;;;;19.55;2.90;;;13.80;54.10;;;;;;4988056;28;20410;-46
2023/12/11 05:16:57;;;;;;;16.70;3.03;;;13.70;54.10;;;;;;4982938;28;20061;-47
2023/12/11 05:19:26;;;;;;;18.27;3.85;;;13.80;54.10;;;;;;4984074;28;20061;-49
2023/12/11 05:21:53;;;;;;;16.20;2.58;;;13.70;54.10;;;;;;4988162;28;20050;-48
2023/12/11 05:24:21;;;;;;;18.83;3.65;;;13.70;54.10;;;;;;4985876;28;20069;-47
2023/12/11 05:26:48;;;;;;;26.80;3.33;;;13.70;54.20;;;;;;4987522;28;20411;-48
2023/12/11 05:29:15;;;;;;;15.85;2.80;;;13.70;54.20;;;;;;4987092;28;20054;-46
2023/12/11 05:31:42;;;;;;;20.67;2.70;;;13.70;54.20;;;;;;4988309;28;20057;-48
2023/12/11 05:34:09;;;;;;;20.27;2.65;;;13.70;54.20;;;;;;4986327;28;20042;-48
2023/12/11 05:36:38;;;;;;;19.33;2.78;;;13.70;54.20;;;;;;4986998;28;20050;-36
2023/12/11 05:39:06;;;;;;;23.58;3.35;;;13.70;54.10;;;;;;4987138;28;20423;-39
2023/12/11 05:41:34;;;;;;;18.58;2.85;;;13.70;54.00;;;;;;4984158;28;20057;-41
2023/12/11 05:44:01;;;;;;;21.58;3.30;;;13.80;54.10;;;;;;4988098;28;20050;-38
2023/12/11 05:46:28;;;;;;;17.92;3.13;;;13.70;54.00;;;;;;4986794;28;20379;-40
2023/12/11 05:48:55;;;;;;;15.02;2.60;;;13.80;54.10;;;;;;4985669;28;20054;-39
2023/12/11 05:51:22;;;;;;;16.67;3.05;;;13.70;54.00;;;;;;4989606;28;20057;-42
2023/12/11 05:53:51;;;;;;;20.38;2.80;;;13.70;54.20;;;;;;4985392;28;20046;-36
2023/12/11 05:56:18;;;;;;;20.25;2.67;;;13.70;54.20;;;;;;4990133;28;20056;-41
2023/12/11 05:58:45;;;;;;;24.58;3.90;;;13.70;54.20;;;;;;4984505;28;20510;-41
2023/12/11 06:01:13;;;;;;;18.40;2.38;;;13.60;54.00;;;;;;4985723;28;20061;-36
2023/12/11 06:03:40;;;;;;;14.38;2.63;;;13.60;54.10;;;;;;4987826;28;20433;-36
2023/12/11 06:06:15;;;;;;;18.90;2.83;;;13.60;54.10;;;;;;4985286;28;20050;-38
2023/12/11 06:08:43;;;;;;;19.58;2.75;;;13.60;53.80;;;;;;4984875;28;20050;-34
2023/12/11 06:11:11;;;;;;;14.77;2.80;;;13.50;53.60;;;;;;4987769;28;20054;-39
2023/12/11 06:13:38;;;;;;;13.38;2.63;;;13.50;53.80;;;;;;4986065;28;20058;-40
2023/12/11 06:16:06;;;;;;;13.45;2.40;;;13.50;53.50;;;;;;4985672;28;20058;-34
2023/12/11 06:18:34;;;;;;;12.57;2.30;;;13.50;53.50;;;;;;4987047;28;20061;-34
2023/12/11 06:21:01;;;;;;;13.60;2.75;;;13.40;53.40;;;;;;4987082;28;20047;-36
2023/12/11 06:23:28;;;;;;;15.43;2.53;;;13.50;53.40;;;;;;4986325;28;20058;-35
2023/12/11 06:25:55;;;;;;;13.23;2.42;;;13.50;53.40;;;;;;4984030;28;20054;-37
2023/12/11 06:28:24;;;;;;;19.00;2.47;;;13.60;53.60;;;;;;4989064;28;20060;-42
2023/12/11 06:30:51;;;;;;;19.80;2.97;;;13.60;53.40;;;;;;4988797;28;20499;-40
2023/12/11 06:33:18;;;;;;;21.13;3.65;;;13.70;53.10;;;;;;5009775;28;20045;-38
2023/12/11 06:35:45;;;;;;;16.77;2.72;;;13.70;53.10;;;;;;5010846;28;20422;-43
2023/12/11 06:38:13;;;;;;;20.05;2.92;;;13.70;52.80;;;;;;5008025;28;20108;-37
2023/12/11 06:40:40;;;;;;;17.88;2.50;;;13.60;52.90;;;;;;5009438;28;20050;-38
2023/12/11 06:43:07;;;;;;;15.02;3.08;;;13.70;53.30;;;;;;5007887;28;20050;-38
2023/12/11 06:45:36;;;;;;;12.18;2.53;;;13.70;53.70;;;;;;5004267;28;20054;-38
2023/12/11 06:48:04;;;;;;;14.85;2.40;;;13.70;53.70;;;;;;5008130;28;20053;-36
2023/12/11 06:50:31;;;;;;;14.80;2.45;;;13.70;53.70;;;;;;5004665;28;20525;-39
2023/12/11 06:52:58;;;;;;;18.38;2.35;;;13.80;53.70;;;;;;5006274;28;20054;-37
2023/12/11 06:55:25;;;;;;;11.43;2.42;;;13.80;53.70;;;;;;5005913;28;20053;-40
2023/12/11 06:57:52;;;;;;;18.65;2.97;;;13.80;53.80;;;;;;5014115;28;20064;-39
2023/12/11 07:00:21;;;;;;;15.85;3.13;;;13.80;53.70;;;;;;5006065;28;20057;-38
2023/12/11 07:02:50;;;;;;;16.67;2.70;;;13.70;53.40;;;;;;5007043;28;20057;-39
2023/12/11 07:05:17;;;;;;;18.70;3.17;;;13.70;53.30;;;;;;5006921;28;20056;-34
2023/12/11 07:07:44;;;;;;;15.90;2.83;;;13.60;53.30;;;;;;5005490;28;20052;-41
2023/12/11 07:10:12;;;;;;;14.20;2.60;;;13.60;53.40;;;;;;5007336;28;20057;-37
2023/12/11 07:12:42;;;;;;;15.02;2.38;;;13.60;53.60;;;;;;5007579;28;20062;-35
2023/12/11 07:15:10;;;;;;;16.45;2.67;;;13.50;53.60;;;;;;5012036;28;20054;-36
2023/12/11 07:17:37;;;;;;;14.88;2.88;;;13.40;53.60;;;;;;5007045;28;20510;-40
2023/12/11 07:20:07;;;;;;;15.38;2.35;;;13.40;53.80;;;;;;5010191;28;20058;-34
2023/12/11 07:22:34;;;;;;;17.27;2.35;;;13.40;53.90;;;;;;5013605;28;20434;-38
2023/12/11 07:25:02;;;;;;;10.40;2.05;;;13.40;54.00;;;;;;5009196;28;20053;-41
2023/12/11 07:27:29;;;;;;;18.45;2.95;;;13.40;54.00;;;;;;5008533;28;20060;-42
2023/12/11 07:29:56;;;;;;;13.27;1.98;;;13.50;54.00;;;;;;5009103;28;20057;-39
2023/12/11 07:39:10;;;;;;;18.98;2.88;;;13.50;54.30;;;;;;5012363;28;20049;-39
2023/12/11 07:41:37;;;;;;;9.25;1.90;;;13.40;54.50;;;;;;5008368;28;20085;-37
2023/12/11 07:44:04;;;;;;;10.80;2.15;;;13.40;54.50;;;;;;5010326;28;20064;-34
2023/12/11 07:46:32;;;;;;;18.73;2.88;;;13.40;54.60;;;;;;5005399;28;20677;-36
2023/12/11 07:48:59;;;;;;;14.60;2.15;;;13.50;54.60;;;;;;5003597;28;20060;-33
2023/12/11 07:51:26;;;;;;;11.70;1.85;;;13.40;54.60;;;;;;5006389;28;20065;-37
2023/12/11 07:53:55;;;;;;;10.23;2.13;;;13.40;54.70;;;;;;5002422;28;20054;-39
2023/12/11 07:56:24;;;;;;;13.93;2.05;;;13.40;54.70;;;;;;5006931;28;20058;-37
2023/12/11 07:58:52;;;;;;;8.57;1.65;;;13.50;54.70;;;;;;5005476;28;20526;-38
2023/12/11 08:01:20;;;;;;;10.18;1.80;;;13.50;54.80;;;;;;5006342;28;20062;-41
2023/12/11 08:03:48;;;;;;;12.02;2.20;;;13.60;54.80;;;;;;5006421;28;20050;-38
2023/12/11 08:06:17;;;;;;;12.13;1.80;;;13.50;54.70;;;;;;5005911;28;20087;-42
2023/12/11 08:08:44;;;;;;;11.00;1.85;;;13.60;54.70;;;;;;5007845;28;20049;-37
2023/12/11 08:11:20;;;;;;;13.25;1.90;;;13.60;54.70;;;;;;5006872;28;20056;-38
2023/12/11 08:13:49;;;;;;;14.80;3.03;;;13.50;54.60;;;;;;5005768;28;20046;-43
2023/12/11 08:16:17;;;;;;;10.57;2.00;;;13.50;54.70;;;;;;5004946;28;20049;-34
2023/12/11 08:18:44;;;;;;;13.57;2.30;;;13.60;54.70;;;;;;5004486;28;20050;-32
2023/12/11 08:21:12;;;;;;;14.20;1.90;;;13.60;54.70;;;;;;5008641;28;20060;-39
2023/12/11 08:23:39;;;;;;;14.30;2.20;;;13.60;54.60;;;;;;5007212;28;20084;-36
2023/12/11 08:26:06;;;;;;;14.45;2.30;;;13.60;54.60;;;;;;5005540;28;20056;-36
2023/12/11 08:28:34;;;;;;;16.00;2.65;;;13.60;54.60;;;;;;5007438;28;21064;-36
2023/12/11 08:31:03;;;;;;;17.77;2.60;;;13.60;54.60;;;;;;5006689;28;20053;-33
2023/12/11 08:33:31;;;;;;;16.15;2.20;;;13.60;54.60;;;;;;5006887;28;20054;-40
2023/12/11 08:35:58;;;;;;;14.93;2.63;;;13.70;54.50;;;;;;5005104;28;20439;-39
2023/12/11 08:38:27;;;;;;;14.98;3.20;;;13.70;54.50;;;;;;5008101;28;20503;-39
2023/12/11 08:40:55;;;;;;;17.58;3.05;;;13.70;54.30;;;;;;5004679;28;20052;-38
2023/12/11 08:43:22;;;;;;;16.38;2.22;;;13.70;54.20;;;;;;5005632;28;20054;-39
2023/12/11 08:45:50;;;;;;;14.65;2.67;;;13.80;54.30;;;;;;5000857;28;20046;-39
2023/12/11 08:48:18;;;;;;;16.73;2.55;;;13.80;54.20;;;;;;5006396;28;20050;-37
2023/12/11 08:50:47;;;;;;;19.73;3.05;;;13.80;54.00;;;;;;5004785;28;20050;-43
2023/12/11 08:53:15;;;;;;;17.83;3.22;;;13.80;53.90;;;;;;5007310;28;20057;-36
2023/12/11 08:55:42;;;;;;;15.70;2.85;;;13.80;53.90;;;;;;5006438;28;20062;-41
2023/12/11 08:58:10;;;;;;;24.40;3.83;;;13.80;53.90;;;;;;5007351;28;20076;-37
2023/12/11 09:00:37;;;;;;;16.88;2.85;;;13.80;53.70;;;;;;5005364;28;20050;-32
2023/12/11 09:03:04;;;;;;;19.95;3.15;;;13.90;53.90;;;;;;5006057;28;20057;-39
2023/12/11 09:05:33;;;;;;;17.08;2.60;;;14.00;53.80;;;;;;5006183;28;20053;-36
2023/12/11 09:08:00;;;;;;;24.42;3.40;;;14.00;53.80;;;;;;5005602;28;20659;-48
2023/12/11 09:10:27;;;;;;;17.75;2.92;;;14.10;53.70;;;;;;5007294;28;20057;-48
2023/12/11 09:12:54;;;;;;;14.80;2.70;;;14.00;53.40;;;;;;5005693;28;20062;-47
2023/12/11 09:15:21;;;;;;;18.45;2.80;;;14.10;53.60;;;;;;5004532;28;20084;-48
2023/12/11 09:17:49;;;;;;;17.13;2.97;;;14.20;53.40;;;;;;5003792;28;20053;-45
2023/12/11 09:20:17;;;;;;;16.45;3.10;;;14.30;53.40;;;;;;5007535;28;20057;-47
2023/12/11 09:22:46;;;;;;;23.65;3.47;;;14.30;53.30;;;;;;5007664;28;20076;-47
2023/12/11 09:25:13;;;;;;;17.75;3.10;;;14.30;53.10;;;;;;5006417;28;20049;-43
2023/12/11 09:27:41;;;;;;;22.20;3.38;;;14.10;52.70;;;;;;5006721;28;20398;-49
2023/12/11 09:30:10;;;;;;;22.27;3.28;;;14.10;52.70;;;;;;5004501;28;20057;-44
2023/12/11 09:32:37;;;;;;;17.20;3.10;;;14.00;52.60;;;;;;5010172;28;20050;-39
2023/12/11 09:35:06;;;;;;;12.85;2.40;;;14.10;52.80;;;;;;5009886;28;20049;-44
2023/12/11 09:37:33;;;;;;;25.35;3.08;;;14.10;53.00;;;;;;5005212;28;20058;-41
2023/12/11 09:40:02;;;;;;;27.48;3.83;;;14.10;53.00;;;;;;5009666;28;20065;-45
2023/12/11 09:42:30;;;;;;;17.98;2.83;;;14.20;52.90;;;;;;5004665;28;20062;-43
2023/12/11 09:44:58;;;;;;;14.43;3.20;;;14.20;53.10;;;;;;5010935;28;20053;-45
2023/12/11 09:47:29;;;;;;;21.45;3.10;;;14.20;52.90;;;;;;5006500;28;20063;-46
2023/12/11 09:49:57;;;;;;;17.70;3.20;;;14.10;52.90;;;;;;5004699;28;20414;-44
2023/12/11 09:52:24;;;;;;;23.10;3.10;;;14.20;53.00;;;;;;5005610;28;20060;-42
2023/12/11 09:54:51;;;;;;;21.75;3.03;;;14.20;52.80;;;;;;5007428;28;20498;-46
2023/12/11 09:57:20;;;;;;;23.00;2.90;;;14.20;52.70;;;;;;5006018;28;20053;-45
2023/12/11 09:59:50;;;;;;;18.85;2.92;;;14.10;52.60;;;;;;5009789;28;20061;-43
2023/12/11 10:02:18;;;;;;;11.95;2.53;;;14.10;52.50;;;;;;5004578;28;20050;-44
2023/12/11 10:05:03;;;;;;;21.45;3.50;;;14.20;52.70;;;;;;5006540;28;20061;-46
2023/12/11 10:07:31;;;;;;;20.08;3.58;;;14.20;52.40;;;;;;5007683;28;20053;-43
2023/12/11 10:09:58;;;;;;;25.30;3.63;;;14.20;52.60;;;;;;5002978;28;20486;-44
2023/12/11 10:12:39;;;;;;;18.60;2.70;;;14.20;52.70;;;;;;5006946;28;20070;-44
2023/12/11 10:15:07;;;;;;;19.35;2.60;;;14.20;52.60;;;;;;5006338;28;20057;-43
2023/12/11 10:17:35;;;;;;;19.73;2.85;;;14.30;52.60;;;;;;5003142;28;20061;-35
2023/12/11 10:20:02;;;;;;;13.70;2.67;;;14.20;52.20;;;;;;5008703;28;20050;-34
2023/12/11 10:22:31;;;;;;;18.38;2.80;;;14.30;52.60;;;;;;5007964;28;20049;-34
2023/12/11 10:24:59;;;;;;;12.10;2.47;;;14.40;52.60;;;;;;5010172;28;20050;-33
2023/12/11 10:27:28;;;;;;;16.35;3.05;;;14.40;52.30;;;;;;5007207;28;20038;-33
2023/12/11 10:30:09;;;;;;;13.02;2.53;;;14.40;52.40;;;;;;5007506;28;20514;-33
2023/12/11 10:32:36;;;;;;;14.82;2.50;;;14.40;52.20;;;;;;5003890;28;20060;-34
2023/12/11 10:35:05;;;;;;;18.70;2.83;;;14.50;52.40;;;;;;5008570;28;20045;-32
2023/12/11 10:37:34;;;;;;;18.15;3.55;;;14.30;52.10;;;;;;5004903;28;20065;-34
2023/12/11 10:40:02;;;;;;;17.52;2.67;;;14.10;52.10;;;;;;5011627;28;20060;-34
2023/12/11 10:42:31;;;;;;;13.60;2.55;;;14.20;52.20;;;;;;5005707;28;20058;-34
2023/12/11 10:44:58;;;;;;;10.43;2.75;;;14.20;52.10;;;;;;5006873;28;20064;-33
2023/12/11 10:47:26;;;;;;;20.38;2.35;;;14.20;52.30;;;;;;5005557;28;20050;-34
2023/12/11 10:49:53;;;;;;;15.73;3.30;;;14.30;52.20;;;;;;5012621;28;20042;-34
2023/12/11 10:52:21;;;;;;;19.63;3.17;;;14.30;52.20;;;;;;5009612;28;20049;-35
2023/12/11 10:54:48;;;;;;;10.98;2.42;;;14.30;52.30;;;;;;5016370;28;20046;-35
2023/12/11 10:57:16;;;;;;;14.95;3.22;;;14.30;52.40;;;;;;5012850;28;20046;-34
2023/12/11 10:59:45;;;;;;;16.60;2.58;;;14.30;52.40;;;;;;5011856;28;20072;-33
2023/12/11 11:02:16;;;;;;;14.82;2.80;;;14.20;52.30;;;;;;5007352;28;20054;-33
2023/12/11 11:04:45;;;;;;;11.55;2.42;;;14.20;52.30;;;;;;5007488;28;20080;-33
2023/12/11 11:07:21;;;;;;;16.58;3.13;;;14.30;52.60;;;;;;5009964;28;20058;-33
2023/12/11 11:10:00;;;;;;;19.80;3.08;;;14.30;52.60;;;;;;5012674;28;20045;-34
2023/12/11 11:12:37;;;;;;;17.77;3.28;;;14.20;52.60;;;;;;5012408;28;20057;-33
2023/12/11 11:15:09;;;;;;;11.27;2.05;;;14.30;52.50;;;;;;5014382;28;20082;-32
2023/12/11 11:18:01;;;;;;;11.15;1.92;;;14.30;52.50;;;;;;5011049;28;20053;-35
2023/12/11 11:20:30;;;;;;;15.98;2.45;;;14.30;52.30;;;;;;5008890;28;20053;-34
2023/12/11 11:23:22;;;;;;;10.32;2.35;;;14.30;52.30;;;;;;5012634;28;20050;-33
2023/12/11 11:25:53;;;;;;;9.88;1.73;;;14.30;52.20;;;;;;5008294;28;20050;-36
2023/12/11 11:28:37;;;;;;;12.80;2.03;;;14.20;52.20;;;;;;5011601;28;20414;-44
2023/12/11 11:31:06;;;;;;;11.30;2.40;;;14.30;52.20;;;;;;5014077;28;20050;-43
2023/12/11 11:33:47;;;;;;;13.32;2.20;;;14.40;52.40;;;;;;5017373;28;20073;-44
2023/12/11 11:36:16;;;;;;;14.32;2.40;;;14.40;51.90;;;;;;5011270;28;20446;-43
2023/12/11 11:38:54;;;;;;;11.27;2.00;;;14.40;52.20;;;;;;5014810;28;20077;-42
2023/12/11 11:41:26;;;;;;;11.77;2.33;;;14.40;51.90;;;;;;5016756;28;20510;-44
2023/12/11 11:44:07;;;;;;;10.43;2.17;;;14.50;51.70;;;;;;5012289;28;20050;-43
2023/12/11 11:46:51;;;;;;;10.70;2.20;;;14.50;51.40;;;;;;5012291;28;20046;-44
2023/12/11 11:49:29;;;;;;;10.85;1.77;;;14.50;51.40;;;;;;5006367;28;20380;-42
2023/12/11 11:51:57;;;;;;;14.77;2.38;;;14.50;51.40;;;;;;5007662;28;20478;-47
2023/12/11 11:54:24;;;;;;;10.43;1.77;;;14.60;51.50;;;;;;5019989;28;20049;-45
2023/12/11 11:56:52;;;;;;;12.75;1.98;;;14.50;51.50;;;;;;5012609;28;20053;-43
2023/12/11 11:59:20;;;;;;;14.45;2.78;;;14.60;51.30;;;;;;5019015;28;20045;-42
2023/12/11 12:01:52;;;;;;;12.98;2.35;;;14.50;51.10;;;;;;5019100;28;20053;-40
2023/12/11 12:04:30;;;;;;;10.70;2.17;;;14.50;51.40;;;;;;5010170;28;20080;-39
2023/12/11 12:06:59;;;;;;;12.40;2.10;;;14.50;51.30;;;;;;5008491;28;20058;-42
2023/12/11 12:09:27;;;;;;;16.45;2.50;;;14.40;51.50;;;;;;5014925;28;20501;-45
2023/12/11 12:11:54;;;;;;;11.82;2.30;;;14.40;51.30;;;;;;5008350;28;20053;-44
2023/12/11 12:14:22;;;;;;;14.77;2.10;;;14.30;51.50;;;;;;5006599;28;20058;-42
2023/12/11 12:16:49;;;;;;;12.48;2.40;;;14.30;52.20;;;;;;5001881;28;20399;-43
2023/12/11 12:19:19;;;;;;;16.88;2.60;;;14.30;51.70;;;;;;5007075;28;20045;-46
2023/12/11 12:21:51;;;;;;;9.13;1.92;;;14.40;51.90;;;;;;5008880;28;20050;-41
2023/12/11 12:24:19;;;;;;;9.55;2.17;;;14.40;51.80;;;;;;5012261;28;20045;-42
2023/12/11 12:26:48;;;;;;;12.60;1.80;;;14.40;51.70;;;;;;5020458;28;20057;-44
2023/12/11 12:29:16;;;;;;;8.73;2.00;;;14.40;51.70;;;;;;5010606;28;20046;-45
2023/12/11 12:31:45;;;;;;;12.65;2.03;;;14.50;51.70;;;;;;5004573;28;20050;-45
2023/12/11 12:34:13;;;;;;;16.17;2.13;;;14.40;52.20;;;;;;5003376;28;20065;-44
2023/12/11 12:36:42;;;;;;;18.50;2.72;;;14.40;51.60;;;;;;4998870;28;20050;-41
2023/12/11 12:39:09;;;;;;;12.88;2.35;;;14.40;51.70;;;;;;5008795;28;20065;-45
2023/12/11 12:41:37;;;;;;;11.30;2.08;;;14.50;51.90;;;;;;5009586;28;20831;-43
2023/12/11 12:44:05;;;;;;;17.85;2.65;;;14.50;51.90;;;;;;5009964;28;20479;-43
2023/12/11 12:46:39;;;;;;;11.65;1.95;;;14.50;51.80;;;;;;5008416;28;20045;-42
2023/12/11 12:49:10;;;;;;;10.00;1.83;;;14.60;51.90;;;;;;5006787;28;20054;-44
2023/12/11 12:51:50;;;;;;;11.27;2.03;;;14.40;51.80;;;;;;5008355;28;20045;-46
2023/12/11 12:54:18;;;;;;;14.02;1.80;;;14.50;51.70;;;;;;5008184;28;20049;-43
2023/12/11 12:56:52;;;;;;;12.23;2.45;;;14.50;51.80;;;;;;5007321;28;20061;-46
2023/12/11 12:59:19;;;;;;;;;;;14.60;52.00;;;;;;5009268;28;20054;-43
2023/12/11 13:01:48;;;;;;;8.45;1.58;;;14.60;52.00;;;;;;5008436;28;19921;-44
2023/12/11 13:04:16;;;;;;;12.23;1.95;;;14.70;52.00;;;;;;5007762;28;20053;-42
2023/12/11 13:06:45;;;;;;;9.98;2.00;;;14.70;51.90;;;;;;5009179;28;20072;-44
2023/12/11 13:09:28;;;;;;;14.38;2.28;;;14.70;51.90;;;;;;5008004;28;20861;-44